createdAt,value
2017-11-19T00:02:28.250Z,79.08
2017-11-19T00:04:56.533Z,78.99
2017-11-19T00:07:24.782Z,78.75
2017-11-19T00:09:53.075Z,79.17
2017-11-19T00:12:21.365Z,78.96
2017-11-19T00:14:49.608Z,79.00
2017-11-19T00:17:17.892Z,79.34
2017-11-19T00:19:46.149Z,79.19
2017-11-19T00:22:14.464Z,78.91
2017-11-19T00:24:42.732Z,78.77
2017-11-19T00:27:11.029Z,78.82
2017-11-19T00:29:39.336Z,78.48
2017-11-19T00:32:07.600Z,78.49
2017-11-19T00:34:35.880Z,78.38
2017-11-19T00:37:04.165Z,78.67
2017-11-19T00:39:32.441Z,78.43
2017-11-19T00:42:00.690Z,78.66
2017-11-19T00:44:28.981Z,78.94
2017-11-19T00:46:57.246Z,78.62
2017-11-19T00:49:25.516Z,78.66
2017-11-19T00:51:53.769Z,78.74
2017-11-19T00:54:22.062Z,78.57
2017-11-19T00:56:50.332Z,78.42
2017-11-19T00:59:18.603Z,78.28
2017-11-19T01:01:46.957Z,78.22
2017-11-19T01:04:16.009Z,78.07
2017-11-19T01:06:44.310Z,78.17
2017-11-19T01:09:12.585Z,78.33
2017-11-19T01:11:40.841Z,78.45
2017-11-19T01:14:09.076Z,78.59
2017-11-19T01:16:37.367Z,78.87
2017-11-19T01:19:05.667Z,79.63
2017-11-19T01:21:33.944Z,79.39
2017-11-19T01:24:02.254Z,79.78
2017-11-19T01:26:30.546Z,80.15
2017-11-19T01:28:58.841Z,80.03
2017-11-19T01:31:27.112Z,80.04
2017-11-19T01:33:55.394Z,80.64
2017-11-19T01:36:23.654Z,80.97
2017-11-19T01:38:51.941Z,80.54
2017-11-19T01:41:20.198Z,80.87
2017-11-19T01:43:48.473Z,81.09
2017-11-19T01:46:16.745Z,81.22
2017-11-19T01:48:45.056Z,81.17
2017-11-19T01:51:13.323Z,81.67
2017-11-19T01:53:41.654Z,81.61
2017-11-19T01:56:09.921Z,81.56
2017-11-19T01:58:38.363Z,81.38
2017-11-19T02:01:06.648Z,81.21
2017-11-19T02:03:34.915Z,81.21
2017-11-19T02:06:03.287Z,81.71
2017-11-19T02:08:31.509Z,81.29
2017-11-19T02:10:59.922Z,81.68
2017-11-19T02:13:28.189Z,81.35
2017-11-19T02:15:56.472Z,81.07
2017-11-19T02:18:24.733Z,81.23
2017-11-19T02:20:53.051Z,81.07
2017-11-19T02:23:21.316Z,82.35
2017-11-19T02:25:49.606Z,82.28
2017-11-19T02:28:17.868Z,81.69
2017-11-19T02:30:46.145Z,81.68
2017-11-19T02:33:14.430Z,81.32
2017-11-19T02:35:42.678Z,81.29
2017-11-19T02:38:10.987Z,81.23
2017-11-19T02:40:39.252Z,81.17
2017-11-19T02:43:07.526Z,81.34
2017-11-19T02:45:35.796Z,81.46
2017-11-19T02:48:04.188Z,81.45
2017-11-19T02:50:32.436Z,81.47
2017-11-19T02:53:00.731Z,81.54
2017-11-19T02:55:29.014Z,81.55
2017-11-19T02:57:57.607Z,81.24
2017-11-19T03:00:26.744Z,80.98
2017-11-19T03:02:55.073Z,81.00
2017-11-19T03:05:23.353Z,81.15
2017-11-19T03:07:51.678Z,81.53
2017-11-19T03:10:20.059Z,81.27
2017-11-19T03:12:48.309Z,81.51
2017-11-19T03:15:16.671Z,81.30
2017-11-19T03:17:44.897Z,81.46
2017-11-19T03:20:13.216Z,81.77
2017-11-19T03:22:41.460Z,81.70
2017-11-19T03:25:09.767Z,81.83
2017-11-19T03:27:38.034Z,82.05
2017-11-19T03:30:06.468Z,81.92
2017-11-19T03:32:34.709Z,81.76
2017-11-19T03:35:04.606Z,81.63
2017-11-19T03:37:32.917Z,81.52
2017-11-19T03:40:01.193Z,81.39
2017-11-19T03:42:29.501Z,81.70
2017-11-19T03:44:57.758Z,81.88
2017-11-19T03:47:26.043Z,81.94
2017-11-19T03:49:54.296Z,82.08
2017-11-19T03:52:22.572Z,81.97
2017-11-19T03:54:50.841Z,81.80
2017-11-19T03:57:19.141Z,81.51
2017-11-19T03:59:47.397Z,81.38
2017-11-19T04:02:15.673Z,81.46
2017-11-19T04:04:43.926Z,81.49
2017-11-19T04:07:12.204Z,81.56
2017-11-19T04:09:40.492Z,81.81
2017-11-19T04:12:08.760Z,81.79
2017-11-19T04:14:37.034Z,81.65
2017-11-19T04:17:05.293Z,81.54
2017-11-19T04:19:33.593Z,81.46
2017-11-19T04:22:01.846Z,81.48
2017-11-19T04:24:30.168Z,82.00
2017-11-19T04:26:58.416Z,81.90
2017-11-19T04:29:26.701Z,83.13
2017-11-19T04:31:54.968Z,84.27
2017-11-19T04:34:23.334Z,85.02
2017-11-19T04:36:51.609Z,84.35
2017-11-19T04:39:19.906Z,83.47
2017-11-19T04:41:48.169Z,80.59
2017-11-19T04:44:16.488Z,80.20
2017-11-19T04:46:44.757Z,79.67
2017-11-19T04:49:13.035Z,79.30
2017-11-19T04:51:41.302Z,78.18
2017-11-19T04:54:09.557Z,78.45
2017-11-19T04:56:37.885Z,78.47
2017-11-19T04:59:06.133Z,78.18
2017-11-19T05:01:34.413Z,78.27
2017-11-19T05:04:02.665Z,78.20
2017-11-19T05:06:30.942Z,78.42
2017-11-19T05:08:59.206Z,78.56
2017-11-19T05:11:27.506Z,78.27
2017-11-19T05:13:55.775Z,78.55
2017-11-19T05:16:24.049Z,79.56
2017-11-19T05:18:52.330Z,80.74
2017-11-19T05:21:21.610Z,81.42
2017-11-19T05:23:50.693Z,82.11
2017-11-19T05:26:19.025Z,82.83
2017-11-19T05:28:47.290Z,82.93
2017-11-19T05:31:15.551Z,83.42
2017-11-19T05:33:43.833Z,83.25
2017-11-19T05:36:12.086Z,82.92
2017-11-19T05:38:40.370Z,82.70
2017-11-19T05:41:08.634Z,81.93
2017-11-19T05:43:36.917Z,81.32
2017-11-19T05:46:05.561Z,80.36
2017-11-19T05:48:34.587Z,79.58
2017-11-19T05:51:02.874Z,80.55
2017-11-19T05:53:31.116Z,80.27
2017-11-19T05:55:59.393Z,78.22
2017-11-19T05:58:27.651Z,79.40
2017-11-19T06:00:55.929Z,80.45
2017-11-19T06:03:24.176Z,80.76
2017-11-19T06:05:52.475Z,79.89
2017-11-19T06:08:20.710Z,80.44
2017-11-19T06:10:48.975Z,80.23
2017-11-19T06:13:17.985Z,79.81
2017-11-19T06:15:46.244Z,79.96
2017-11-19T06:18:14.530Z,80.21
2017-11-19T06:20:43.217Z,80.19
2017-11-19T06:23:11.492Z,79.72
2017-11-19T06:25:39.755Z,79.51
2017-11-19T06:28:08.040Z,79.83
2017-11-19T06:30:36.281Z,79.88
2017-11-19T06:33:04.965Z,79.75
2017-11-19T06:35:33.267Z,80.45
2017-11-19T06:38:01.513Z,80.39
2017-11-19T06:40:29.764Z,80.04
2017-11-19T06:42:58.048Z,79.46
2017-11-19T06:45:26.293Z,79.36
2017-11-19T06:47:54.566Z,79.31
2017-11-19T06:50:22.820Z,80.11
2017-11-19T06:52:51.105Z,80.61
2017-11-19T06:55:19.374Z,81.12
2017-11-19T06:57:47.784Z,81.62
2017-11-19T07:00:16.060Z,82.22
2017-11-19T07:02:44.333Z,81.96
2017-11-19T07:05:12.623Z,80.84
2017-11-19T07:07:40.881Z,80.44
2017-11-19T07:10:09.157Z,79.51
2017-11-19T07:12:37.449Z,79.51
2017-11-19T07:15:05.747Z,78.38
2017-11-19T07:17:33.995Z,77.77
2017-11-19T07:20:02.270Z,77.55
2017-11-19T07:22:30.517Z,77.73
2017-11-19T07:24:58.802Z,77.47
2017-11-19T07:27:27.064Z,77.39
2017-11-19T07:29:55.427Z,76.74
2017-11-19T07:32:23.677Z,76.82
2017-11-19T07:34:51.971Z,76.75
2017-11-19T07:37:20.281Z,76.87
2017-11-19T07:39:48.557Z,77.18
2017-11-19T07:42:16.825Z,77.32
2017-11-19T07:44:45.078Z,77.52
2017-11-19T07:47:13.377Z,77.56
2017-11-19T07:49:42.102Z,77.58
2017-11-19T07:52:10.377Z,77.73
2017-11-19T07:54:38.691Z,77.98
2017-11-19T07:57:06.991Z,78.19
2017-11-19T07:59:35.267Z,77.69
2017-11-19T08:02:04.256Z,77.23
2017-11-19T08:04:32.541Z,77.07
2017-11-19T08:07:00.798Z,76.66
2017-11-19T08:09:29.089Z,75.74
2017-11-19T08:11:57.362Z,76.52
2017-11-19T08:14:25.648Z,75.35
2017-11-19T08:16:53.894Z,75.01
2017-11-19T08:19:22.188Z,74.94
2017-11-19T08:21:50.456Z,75.33
2017-11-19T08:24:18.749Z,75.52
2017-11-19T08:26:46.989Z,75.68
2017-11-19T08:29:15.326Z,75.63
2017-11-19T08:31:43.581Z,75.69
2017-11-19T08:34:11.870Z,75.10
2017-11-19T08:36:40.104Z,74.86
2017-11-19T08:39:08.379Z,74.05
2017-11-19T08:41:36.644Z,74.13
2017-11-19T08:44:04.929Z,74.46
2017-11-19T08:46:33.230Z,74.41
2017-11-19T08:49:01.493Z,74.65
2017-11-19T08:51:29.805Z,74.83
2017-11-19T08:53:58.116Z,73.78
2017-11-19T08:56:26.413Z,74.17
2017-11-19T08:58:54.690Z,74.08
2017-11-19T09:01:22.961Z,73.83
2017-11-19T09:03:51.207Z,73.28
2017-11-19T09:06:19.508Z,73.34
2017-11-19T09:08:47.765Z,72.88
2017-11-19T09:11:16.021Z,72.71
2017-11-19T09:13:44.302Z,72.72
2017-11-19T09:16:12.546Z,72.15
2017-11-19T09:18:40.830Z,72.26
2017-11-19T09:21:09.109Z,71.87
2017-11-19T09:23:37.412Z,71.21
2017-11-19T09:26:05.664Z,71.29
2017-11-19T09:28:33.947Z,70.88
2017-11-19T09:31:02.291Z,70.07
2017-11-19T09:33:30.582Z,70.37
2017-11-19T09:35:58.863Z,70.11
2017-11-19T09:38:27.115Z,68.82
2017-11-19T09:40:55.394Z,68.41
2017-11-19T09:43:23.945Z,68.48
2017-11-19T09:45:52.235Z,67.91
2017-11-19T09:48:20.501Z,68.32
2017-11-19T09:50:48.804Z,67.72
2017-11-19T09:53:17.386Z,67.09
2017-11-19T09:55:45.693Z,65.74
2017-11-19T09:58:14.006Z,65.81
2017-11-19T10:00:42.262Z,67.02
2017-11-19T10:03:10.522Z,65.86
2017-11-19T10:05:38.797Z,66.73
2017-11-19T10:08:07.090Z,66.34
2017-11-19T10:10:35.390Z,66.60
2017-11-19T10:13:04.604Z,66.43
2017-11-19T10:15:34.493Z,66.12
2017-11-19T10:18:02.796Z,65.94
2017-11-19T10:20:31.054Z,66.08
2017-11-19T10:22:59.418Z,66.37
2017-11-19T10:25:27.649Z,65.73
2017-11-19T10:27:57.262Z,66.11
2017-11-19T10:30:25.525Z,65.96
2017-11-19T10:32:53.853Z,66.20
2017-11-19T10:35:22.097Z,66.07
2017-11-19T10:37:50.392Z,65.70
2017-11-19T10:40:18.661Z,65.48
2017-11-19T10:42:46.925Z,65.41
2017-11-19T10:45:15.217Z,65.69
2017-11-19T10:47:43.471Z,65.63
2017-11-19T10:50:11.758Z,64.85
2017-11-19T10:52:40.012Z,65.66
2017-11-19T10:55:08.301Z,65.48
2017-11-19T10:57:36.570Z,66.04
2017-11-19T11:00:05.033Z,65.79
2017-11-19T11:02:33.316Z,64.91
2017-11-19T11:05:02.326Z,63.92
2017-11-19T11:07:30.616Z,63.82
2017-11-19T11:09:58.859Z,63.42
2017-11-19T11:12:27.141Z,63.71
2017-11-19T11:14:55.394Z,63.57
2017-11-19T11:17:24.541Z,63.55
2017-11-19T11:19:53.736Z,63.42
2017-11-19T11:22:22.021Z,63.67
2017-11-19T11:24:50.430Z,63.59
2017-11-19T11:27:18.702Z,63.10
2017-11-19T11:29:46.994Z,63.38
2017-11-19T11:32:15.308Z,62.92
2017-11-19T11:34:43.552Z,63.23
2017-11-19T11:37:11.800Z,61.77
2017-11-19T11:39:40.090Z,62.03
2017-11-19T11:42:08.502Z,62.37
2017-11-19T11:44:36.759Z,61.79
2017-11-19T11:47:05.047Z,61.92
2017-11-19T11:49:33.501Z,61.23
2017-11-19T11:52:01.763Z,61.27
2017-11-19T11:54:30.066Z,61.12
2017-11-19T11:56:58.329Z,60.57
2017-11-19T11:59:26.577Z,60.78
2017-11-19T12:01:54.908Z,61.66
2017-11-19T12:04:23.172Z,61.83
2017-11-19T12:06:51.434Z,61.78
2017-11-19T12:09:19.681Z,61.24
2017-11-19T12:11:48.134Z,60.59
2017-11-19T12:14:16.469Z,60.89
2017-11-19T12:16:44.796Z,61.54
2017-11-19T12:19:13.062Z,61.28
2017-11-19T12:21:41.314Z,60.47
2017-11-19T12:24:09.613Z,60.62
2017-11-19T12:26:37.857Z,61.48
2017-11-19T12:29:06.196Z,62.40
2017-11-19T12:31:34.437Z,62.30
2017-11-19T12:34:02.718Z,62.85
2017-11-19T12:36:31.010Z,61.93
2017-11-19T12:38:59.292Z,62.45
2017-11-19T12:41:27.626Z,62.64
2017-11-19T12:43:55.889Z,62.62
2017-11-19T12:46:24.170Z,62.33
2017-11-19T12:48:52.449Z,62.51
2017-11-19T12:51:20.819Z,62.87
2017-11-19T12:53:49.138Z,63.21
2017-11-19T12:56:17.429Z,63.41
2017-11-19T12:58:45.684Z,63.75
2017-11-19T13:01:13.970Z,65.31
2017-11-19T13:03:42.802Z,65.60
2017-11-19T13:06:11.079Z,66.05
2017-11-19T13:08:39.342Z,65.49
2017-11-19T13:11:07.662Z,66.08
2017-11-19T13:13:35.950Z,66.32
2017-11-19T13:16:04.225Z,65.97
2017-11-19T13:18:32.547Z,66.03
2017-11-19T13:21:00.816Z,66.25
2017-11-19T13:23:29.084Z,65.35
2017-11-19T13:25:57.336Z,65.15
2017-11-19T13:28:25.625Z,64.85
2017-11-19T13:30:53.996Z,63.79
2017-11-19T13:33:22.281Z,63.16
2017-11-19T13:35:50.565Z,63.40
2017-11-19T13:38:18.805Z,63.61
2017-11-19T13:40:47.102Z,63.68
2017-11-19T13:43:15.399Z,63.24
2017-11-19T13:45:43.721Z,63.01
2017-11-19T13:48:11.980Z,63.56
2017-11-19T13:50:40.305Z,63.81
2017-11-19T13:53:08.574Z,64.01
2017-11-19T13:55:36.829Z,64.21
2017-11-19T13:58:05.709Z,64.56
2017-11-19T14:00:33.980Z,64.41
2017-11-19T14:03:02.354Z,64.45
2017-11-19T14:05:30.609Z,64.82
2017-11-19T14:07:58.922Z,65.03
2017-11-19T14:10:30.182Z,65.43
2017-11-19T14:13:01.245Z,65.21
2017-11-19T14:15:29.493Z,65.15
2017-11-19T14:17:58.637Z,64.84
2017-11-19T14:20:26.920Z,65.40
2017-11-19T14:22:55.264Z,65.47
2017-11-19T14:25:23.512Z,65.13
2017-11-19T14:27:51.787Z,64.97
2017-11-19T14:30:20.142Z,64.82
2017-11-19T14:32:48.416Z,64.79
2017-11-19T14:35:16.764Z,64.50
2017-11-19T14:37:45.049Z,64.73
2017-11-19T14:40:13.340Z,65.78
2017-11-19T14:42:41.781Z,66.57
2017-11-19T14:45:10.122Z,67.19
2017-11-19T14:47:38.382Z,67.65
2017-11-19T14:50:06.675Z,68.08
2017-11-19T14:52:35.001Z,68.41
2017-11-19T14:55:03.370Z,69.08
2017-11-19T14:57:31.814Z,69.68
2017-11-19T15:00:00.148Z,69.08
2017-11-19T15:02:28.402Z,69.10
2017-11-19T15:04:56.677Z,69.79
2017-11-19T15:07:25.285Z,69.99
2017-11-19T15:09:53.556Z,70.35
2017-11-19T15:12:21.845Z,71.15
2017-11-19T15:14:50.344Z,71.49
2017-11-19T15:17:18.639Z,72.36
2017-11-19T15:19:46.892Z,72.93
2017-11-19T15:22:15.189Z,73.44
2017-11-19T15:24:43.454Z,73.56
2017-11-19T15:27:11.762Z,73.57
2017-11-19T15:29:40.033Z,73.35
2017-11-19T15:32:08.364Z,73.73
2017-11-19T15:34:36.620Z,73.54
2017-11-19T15:37:04.889Z,73.55
2017-11-19T15:39:33.181Z,73.60
2017-11-19T15:42:01.450Z,73.68
2017-11-19T15:44:29.733Z,73.61
2017-11-19T15:46:58.085Z,73.65
2017-11-19T15:49:26.370Z,73.38
2017-11-19T15:51:54.664Z,73.42
2017-11-19T15:54:22.974Z,73.52
2017-11-19T15:56:51.277Z,73.39
2017-11-19T15:59:19.586Z,73.41
2017-11-19T16:01:48.720Z,73.20
2017-11-19T16:04:16.975Z,72.67
2017-11-19T16:06:45.281Z,72.42
2017-11-19T16:09:13.611Z,72.66
2017-11-19T16:11:41.886Z,72.73
2017-11-19T16:14:10.205Z,72.95
2017-11-19T16:16:38.470Z,72.78
2017-11-19T16:19:06.801Z,72.72
2017-11-19T16:21:35.061Z,72.41
2017-11-19T16:26:30.711Z,71.76
2017-11-19T16:28:58.998Z,72.02
2017-11-19T16:31:27.321Z,71.84
2017-11-19T16:33:55.591Z,71.42
2017-11-19T16:36:23.902Z,71.54
2017-11-19T16:38:52.195Z,71.46
2017-11-19T16:41:20.476Z,71.28
2017-11-19T16:43:49.070Z,71.45
2017-11-19T16:46:17.389Z,71.45
2017-11-19T16:48:45.661Z,71.48
2017-11-19T16:51:14.509Z,71.41
2017-11-19T16:53:42.786Z,71.50
2017-11-19T16:56:11.069Z,71.55
2017-11-19T16:58:39.393Z,71.47
2017-11-19T17:01:07.631Z,71.39
2017-11-19T17:03:36.013Z,71.50
2017-11-19T17:06:04.964Z,71.20
2017-11-19T17:08:33.239Z,71.12
2017-11-19T17:11:02.546Z,71.44
2017-11-19T17:13:30.821Z,71.58
2017-11-19T17:15:59.097Z,71.37
2017-11-19T17:18:27.377Z,71.13
2017-11-19T17:20:55.683Z,71.22
2017-11-19T17:23:23.970Z,71.09
2017-11-19T17:25:52.286Z,70.84
2017-11-19T17:28:20.657Z,71.12
2017-11-19T17:30:48.937Z,71.10
2017-11-19T17:33:17.251Z,71.19
2017-11-19T17:35:51.097Z,71.05
2017-11-19T17:38:19.403Z,71.17
2017-11-19T17:40:47.674Z,71.06
2017-11-19T17:43:15.946Z,71.14
2017-11-19T17:45:44.233Z,71.23
2017-11-19T17:48:12.496Z,71.26
2017-11-19T17:50:40.882Z,71.23
2017-11-19T17:53:09.144Z,71.37
2017-11-19T17:55:37.418Z,71.00
2017-11-19T17:58:05.710Z,71.09
2017-11-19T18:00:34.001Z,70.73
2017-11-19T18:03:02.327Z,70.21
2017-11-19T18:05:30.593Z,69.83
2017-11-19T18:07:58.875Z,69.95
2017-11-19T18:10:27.357Z,69.46
2017-11-19T18:12:55.705Z,69.47
2017-11-19T18:15:23.944Z,70.00
2017-11-19T18:17:52.245Z,70.01
2017-11-19T18:20:20.566Z,69.83
2017-11-19T18:22:48.846Z,70.28
2017-11-19T18:25:17.113Z,70.67
2017-11-19T18:27:45.564Z,71.28
2017-11-19T18:30:13.850Z,71.59
2017-11-19T18:32:42.222Z,71.63
2017-11-19T18:35:10.512Z,71.12
2017-11-19T18:37:38.813Z,70.86
2017-11-19T18:40:07.120Z,70.79
2017-11-19T18:42:35.411Z,71.37
2017-11-19T18:45:03.663Z,71.51
2017-11-19T18:47:32.020Z,71.28
2017-11-19T18:50:00.324Z,70.54
2017-11-19T18:52:28.590Z,69.99
2017-11-19T18:54:56.913Z,69.89
2017-11-19T18:57:25.246Z,70.24
2017-11-19T18:59:53.563Z,70.57
2017-11-19T19:02:21.936Z,71.10
2017-11-19T19:04:50.244Z,71.13
2017-11-19T19:07:18.494Z,71.36
2017-11-19T19:09:46.817Z,71.40
2017-11-19T19:12:15.114Z,71.97
2017-11-19T19:14:43.396Z,72.33
2017-11-19T19:17:11.676Z,72.46
2017-11-19T19:19:39.990Z,72.50
2017-11-19T19:22:08.399Z,72.81
2017-11-19T19:24:36.624Z,72.77
2017-11-19T19:27:05.143Z,72.48
2017-11-19T19:29:33.454Z,72.24
2017-11-19T19:34:29.046Z,71.27
2017-11-19T19:36:57.387Z,70.39
2017-11-19T19:39:25.634Z,70.18
2017-11-19T19:41:53.911Z,69.74
2017-11-19T19:44:22.293Z,69.09
2017-11-19T19:46:51.401Z,69.34
2017-11-19T19:49:19.691Z,68.92
2017-11-19T19:51:48.000Z,68.73
2017-11-19T19:54:16.292Z,68.41
2017-11-19T19:56:44.596Z,68.18
2017-11-19T19:59:12.901Z,68.04
2017-11-19T20:01:41.184Z,68.12
2017-11-19T20:04:09.461Z,68.26
2017-11-19T20:06:37.751Z,67.86
2017-11-19T20:09:06.022Z,67.91
2017-11-19T20:11:34.356Z,68.34
2017-11-19T20:14:03.200Z,68.22
2017-11-19T20:16:31.792Z,68.14
2017-11-19T20:19:00.074Z,68.00
2017-11-19T20:21:28.340Z,68.11
2017-11-19T20:23:56.605Z,68.23
2017-11-19T20:26:25.090Z,68.40
2017-11-19T20:28:53.349Z,68.68
2017-11-19T20:31:21.625Z,68.42
2017-11-19T20:33:49.947Z,68.32
2017-11-19T20:36:18.220Z,68.69
2017-11-19T20:38:46.496Z,68.53
2017-11-19T20:41:14.745Z,68.54
2017-11-19T20:43:43.048Z,68.19
2017-11-19T20:46:11.308Z,68.07
2017-11-19T20:48:39.590Z,68.36
2017-11-19T20:51:07.843Z,67.97
2017-11-19T20:53:36.118Z,68.67
2017-11-19T20:56:04.453Z,68.73
2017-11-19T20:58:32.863Z,68.36
2017-11-19T21:01:01.138Z,68.47
2017-11-19T21:03:29.459Z,68.50
2017-11-19T21:05:57.694Z,68.33
2017-11-19T21:08:25.941Z,67.82
2017-11-19T21:10:54.239Z,67.98
2017-11-19T21:13:22.485Z,67.60
2017-11-19T21:15:50.773Z,68.07
2017-11-19T21:18:19.017Z,68.14
2017-11-19T21:20:47.357Z,67.89
2017-11-19T21:23:15.621Z,67.78
2017-11-19T21:25:43.896Z,68.17
2017-11-19T21:28:12.190Z,68.54
2017-11-19T21:30:40.461Z,68.25
2017-11-19T21:33:08.726Z,67.92
2017-11-19T21:35:36.999Z,67.81
2017-11-19T21:38:05.263Z,67.77
2017-11-19T21:40:33.561Z,67.45
2017-11-19T21:43:01.833Z,67.45
2017-11-19T21:45:30.133Z,67.64
2017-11-19T21:47:58.426Z,68.08
2017-11-19T21:50:26.730Z,68.09
2017-11-19T21:52:55.036Z,68.33
2017-11-19T21:55:23.337Z,68.08
2017-11-19T21:57:51.614Z,68.23
2017-11-19T22:00:19.908Z,68.41
2017-11-19T22:02:48.173Z,68.06
2017-11-19T22:05:16.517Z,68.01
2017-11-19T22:07:45.161Z,67.92
2017-11-19T22:10:13.489Z,68.15
2017-11-19T22:12:41.753Z,68.41
2017-11-19T22:15:10.032Z,68.36
2017-11-19T22:17:38.303Z,68.77
2017-11-19T22:20:06.577Z,69.02
2017-11-19T22:22:34.940Z,69.99
2017-11-19T22:25:03.209Z,70.40
2017-11-19T22:27:31.453Z,69.92
2017-11-19T22:29:59.741Z,69.93
2017-11-19T22:32:28.110Z,69.74
2017-11-19T22:34:56.341Z,69.56
2017-11-19T22:37:24.628Z,69.82
2017-11-19T22:39:52.899Z,70.25
2017-11-19T22:42:21.148Z,70.31
2017-11-19T22:44:49.515Z,70.01
2017-11-19T22:47:17.768Z,69.85
2017-11-19T22:49:46.036Z,69.57
2017-11-19T22:52:14.288Z,69.87
2017-11-19T22:54:42.565Z,69.99
2017-11-19T22:57:10.841Z,69.27
2017-11-19T22:59:39.132Z,69.20
2017-11-19T23:02:07.385Z,69.16
2017-11-19T23:04:35.655Z,69.19
2017-11-19T23:07:04.233Z,69.19
2017-11-19T23:09:32.521Z,69.13
2017-11-19T23:12:00.799Z,68.81
2017-11-19T23:14:29.085Z,68.70
2017-11-19T23:16:57.338Z,68.67
2017-11-19T23:19:25.601Z,68.75
2017-11-19T23:21:53.909Z,68.88
2017-11-19T23:24:22.186Z,68.89
2017-11-19T23:26:50.500Z,69.08
2017-11-19T23:29:18.766Z,69.25
2017-11-19T23:31:47.072Z,69.80
2017-11-19T23:34:15.342Z,69.81
2017-11-19T23:36:43.624Z,69.61
2017-11-19T23:39:11.877Z,69.64
2017-11-19T23:41:40.144Z,69.57
2017-11-19T23:44:08.397Z,69.78
2017-11-19T23:46:36.710Z,69.54
2017-11-19T23:49:04.970Z,69.46
2017-11-19T23:51:33.224Z,69.30
2017-11-19T23:54:01.510Z,69.94
2017-11-19T23:56:29.820Z,70.39
2017-11-19T23:58:58.207Z,70.85
